Terminal Aerodrome Forecast
Issued by NWS

Home | Current Version | Previous Version | Text Only | Print | Product List | Glossary On
Versions: 1 2 3 4 5 6 7 8 9 10 11 12 13 14
000
FTUS45 KFGZ 231734
TAFSEZ
TAF
KSEZ 231734Z 2318/2418 18008KT P6SM VCSH BKN012 OVC018
     FM231930 23010KT P6SM -SHRA SCT015 BKN025
      TEMPO 2320/2324 26012G20KT 5SM -SHRA BR BKN010
     FM240400 VRB05KT P6SM SCT030 SCT060=

USA.gov is the U.S. government's official web portal to all federal, state and local government web resources and services.